Time;durP1;ratioP1;P1;durP2;ratioP2;P2;SDS_P1;SDS_P2;PMS_P1;PMS_P2;Temp;Humidity;BMP_temperature;BMP_pressure;BME280_temperature;BME280_humidity;BME280_pressure;Samples;Min_cycle;Max_cycle;Signal;HPM_P1;HPM_P2
2022/07/29 08:46:10;;;;;;;10.00;6.38;;;;;;;;;;6307295;28;20410;-59
2022/07/29 08:49:11;;;;;;;12.38;5.65;;;;;;;;;;6304369;28;20048;-59
2022/07/29 08:52:13;;;;;;;14.23;5.87;;;;;;;;;;6306853;28;20064;-59
2022/07/29 08:55:15;;;;;;;12.80;5.88;;;;;;;;;;6302134;28;20498;-59
2022/07/29 08:58:17;;;;;;;10.48;5.75;;;;;;;;;;6293433;28;20062;-59
2022/07/29 09:01:22;;;;;;;8.15;5.68;;;;;;;;;;6308579;28;20052;-60
2022/07/29 09:04:26;;;;;;;9.25;5.38;;;;;;;;;;6305610;28;20144;-59
2022/07/29 09:07:27;;;;;;;9.52;5.00;;;;;;;;;;6304706;28;20128;-59
2022/07/29 09:10:28;;;;;;;9.85;5.63;;;;;;;;;;6307937;28;20048;-59
2022/07/29 09:13:28;;;;;;;8.23;5.50;;;;;;;;;;6303715;28;20091;-60
2022/07/29 09:16:51;;;;;;;9.63;5.40;;;;;;;;;;6306728;28;20059;-60
2022/07/29 09:19:52;;;;;;;10.50;5.60;;;;;;;;;;6306081;28;20068;-60
2022/07/29 09:22:55;;;;;;;13.13;5.82;;;;;;;;;;6303360;28;20044;-59
2022/07/29 09:26:05;;;;;;;10.98;8.90;;;;;;;;;;6302569;28;20048;-59
2022/07/29 09:29:32;;;;;;;8.05;5.15;;;;;;;;;;6298224;28;20044;-59
2022/07/29 09:32:34;;;;;;;9.88;5.28;;;;;;;;;;6293011;28;20681;-59
2022/07/29 09:35:34;;;;;;;8.23;5.35;;;;;;;;;;6276056;28;20135;-60
2022/07/29 09:38:36;;;;;;;6.77;4.80;;;;;;;;;;6285350;28;20049;-60
2022/07/29 09:41:54;;;;;;;10.98;6.00;;;;;;;;;;6286910;28;20052;-60
2022/07/29 09:44:55;;;;;;;7.55;4.93;;;;;;;;;;6303395;28;20148;-60
2022/07/29 09:47:58;;;;;;;6.57;5.70;;;;;;;;;;6307634;28;20045;-60
2022/07/29 09:51:01;;;;;;;8.95;5.40;;;;;;;;;;6305832;28;20123;-60
2022/07/29 09:54:20;;;;;;;8.40;5.40;;;;;;;;;;6296548;28;20392;-60
2022/07/29 09:57:25;;;;;;;7.55;5.18;;;;;;;;;;6289349;28;20530;-60
2022/07/29 10:00:25;;;;;;;8.00;5.35;;;;;;;;;;6289127;28;20048;-60
2022/07/29 10:03:26;;;;;;;8.13;5.47;;;;;;;;;;6285872;28;20167;-60
2022/07/29 10:06:26;;;;;;;10.00;4.87;;;;;;;;;;6286557;28;20063;-60
2022/07/29 10:09:28;;;;;;;8.50;5.00;;;;;;;;;;6281216;28;20051;-61
2022/07/29 10:12:29;;;;;;;7.50;5.00;;;;;;;;;;6287034;28;20048;-61
2022/07/29 10:15:32;;;;;;;14.70;5.70;;;;;;;;;;6274725;28;20456;-61
2022/07/29 10:18:33;;;;;;;8.25;5.47;;;;;;;;;;6282022;28;20048;-60
2022/07/29 10:21:34;;;;;;;8.45;5.18;;;;;;;;;;6279815;28;20040;-60
2022/07/29 10:24:37;;;;;;;11.52;5.50;;;;;;;;;;6285746;28;20059;-61
2022/07/29 10:27:38;;;;;;;8.07;4.95;;;;;;;;;;6267285;28;20144;-60
2022/07/29 10:30:40;;;;;;;7.78;4.80;;;;;;;;;;6268660;28;20040;-60
2022/07/29 10:33:56;;;;;;;8.68;5.15;;;;;;;;;;6282721;28;20143;-61
2022/07/29 10:37:18;;;;;;;9.43;4.95;;;;;;;;;;6287597;28;20044;-60
2022/07/29 10:44:00;;;;;;;7.32;4.80;;;;;;;;;;6285371;28;20059;-61
2022/07/29 10:47:01;;;;;;;7.03;4.90;;;;;;;;;;6288908;28;20049;-61
2022/07/29 10:50:06;;;;;;;8.90;4.90;;;;;;;;;;6289472;28;20054;-60
2022/07/29 10:53:06;;;;;;;8.55;5.40;;;;;;;;;;6278753;28;20061;-61
2022/07/29 10:56:29;;;;;;;7.03;5.05;;;;;;;;;;6275952;28;20062;-61
2022/07/29 10:59:31;;;;;;;9.00;6.80;;;;;;;;;;6283015;28;20135;-60
2022/07/29 11:02:34;;;;;;;10.48;7.07;;;;;;;;;;6281465;28;20484;-61
2022/07/29 11:05:54;;;;;;;7.95;5.10;;;;;;;;;;6280514;28;20067;-61
2022/07/29 11:09:20;;;;;;;9.45;5.20;;;;;;;;;;6260467;28;20060;-60
2022/07/29 11:12:42;;;;;;;8.00;5.13;;;;;;;;;;6264509;28;20136;-60
2022/07/29 11:15:56;;;;;;;13.50;5.53;;;;;;;;;;6247158;28;20452;-60
2022/07/29 11:19:11;;;;;;;8.48;4.90;;;;;;;;;;6264576;28;20045;-60
2022/07/29 11:22:31;;;;;;;9.48;5.35;;;;;;;;;;6263935;28;20037;-60
2022/07/29 11:25:32;;;;;;;9.10;4.65;;;;;;;;;;6288887;28;20181;-60
2022/07/29 11:28:34;;;;;;;9.43;5.47;;;;;;;;;;6287387;28;20385;-60
2022/07/29 11:31:46;;;;;;;9.25;5.60;;;;;;;;;;6286225;28;20056;-59
2022/07/29 11:34:48;;;;;;;8.30;5.18;;;;;;;;;;6287660;28;20128;-59
2022/07/29 11:38:19;;;;;;;8.45;4.95;;;;;;;;;;6276886;28;20139;-59
2022/07/29 11:41:24;;;;;;;8.90;4.93;;;;;;;;;;6278265;28;20083;-59
2022/07/29 11:44:57;;;;;;;9.88;4.85;;;;;;;;;;6283158;28;20060;-60
2022/07/29 11:47:59;;;;;;;10.23;5.20;;;;;;;;;;6280153;28;20041;-60
2022/07/29 11:51:08;;;;;;;8.40;5.03;;;;;;;;;;6287789;28;20041;-60
2022/07/29 11:54:12;;;;;;;7.45;5.25;;;;;;;;;;6265744;28;20093;-63
2022/07/29 11:57:19;;;;;;;7.85;4.90;;;;;;;;;;6254189;28;20668;-61
2022/07/29 12:00:33;;;;;;;7.88;4.68;;;;;;;;;;6257344;28;20103;-61
2022/07/29 12:03:34;;;;;;;8.30;4.63;;;;;;;;;;6255496;28;20095;-62
2022/07/29 12:06:35;;;;;;;8.05;4.72;;;;;;;;;;6257246;28;20105;-63
2022/07/29 12:09:35;;;;;;;6.90;4.95;;;;;;;;;;6254240;28;20700;-62
2022/07/29 12:12:36;;;;;;;8.77;4.73;;;;;;;;;;6258688;28;20049;-63
2022/07/29 12:15:37;;;;;;;9.73;5.00;;;;;;;;;;6253600;28;20060;-63
2022/07/29 12:18:37;;;;;;;9.25;5.28;;;;;;;;;;6254728;28;20056;-62
2022/07/29 12:21:48;;;;;;;7.77;5.00;;;;;;;;;;6257995;28;20072;-61
2022/07/29 12:24:49;;;;;;;6.60;4.88;;;;;;;;;;6254488;28;20064;-61
2022/07/29 12:28:04;;;;;;;7.93;5.30;;;;;;;;;;6255723;28;20048;-62
2022/07/29 12:31:05;;;;;;;16.30;7.18;;;;;;;;;;6254769;28;20473;-62
2022/07/29 12:34:06;;;;;;;13.55;5.80;;;;;;;;;;6250759;28;20048;-62
2022/07/29 12:37:09;;;;;;;9.80;5.13;;;;;;;;;;6254294;28;20167;-62
2022/07/29 12:40:12;;;;;;;9.35;5.22;;;;;;;;;;6250674;28;20060;-62
2022/07/29 12:43:19;;;;;;;11.82;6.00;;;;;;;;;;6248666;28;20057;-62
2022/07/29 12:46:19;;;;;;;17.90;7.60;;;;;;;;;;6249824;28;20055;-62
2022/07/29 12:49:24;;;;;;;10.80;5.35;;;;;;;;;;6247713;28;20568;-62
2022/07/29 12:52:30;;;;;;;10.70;5.32;;;;;;;;;;6249129;28;20057;-62
2022/07/29 12:55:51;;;;;;;13.13;5.88;;;;;;;;;;6246034;28;20048;-62
2022/07/29 12:58:51;;;;;;;9.30;5.63;;;;;;;;;;6248806;28;21001;-62
2022/07/29 13:01:52;;;;;;;8.70;5.43;;;;;;;;;;6249376;28;20049;-62
2022/07/29 13:04:57;;;;;;;13.50;5.17;;;;;;;;;;6252682;28;20309;-68
2022/07/29 13:08:13;;;;;;;13.50;5.97;;;;;;;;;;6256482;28;20123;-62
2022/07/29 13:11:28;;;;;;;13.48;6.07;;;;;;;;;;6257205;28;20061;-62
2022/07/29 13:14:37;;;;;;;8.25;5.35;;;;;;;;;;6252097;28;20044;-62
2022/07/29 13:17:43;;;;;;;9.95;6.35;;;;;;;;;;6255749;28;20503;-62
2022/07/29 13:20:43;;;;;;;10.55;5.97;;;;;;;;;;6257408;28;21354;-62
2022/07/29 13:23:44;;;;;;;7.67;5.23;;;;;;;;;;6255214;28;20171;-62
2022/07/29 13:26:44;;;;;;;6.82;5.15;;;;;;;;;;6259768;28;20166;-62
2022/07/29 13:29:46;;;;;;;9.93;6.37;;;;;;;;;;6258716;28;20684;-62
2022/07/29 13:32:47;;;;;;;10.02;5.35;;;;;;;;;;6263878;28;20186;-61
2022/07/29 13:35:47;;;;;;;8.40;5.53;;;;;;;;;;6262996;28;20057;-61
2022/07/29 13:38:48;;;;;;;9.35;4.80;;;;;;;;;;6263439;28;20180;-62
2022/07/29 13:41:49;;;;;;;9.33;5.30;;;;;;;;;;6261627;28;20061;-61
2022/07/29 13:44:51;;;;;;;7.50;5.35;;;;;;;;;;6257557;28;20057;-62
2022/07/29 13:47:51;;;;;;;7.07;5.05;;;;;;;;;;6259772;28;20567;-61
2022/07/29 13:50:52;;;;;;;8.10;4.90;;;;;;;;;;6259070;28;20063;-62
2022/07/29 13:53:52;;;;;;;7.17;4.80;;;;;;;;;;6258338;28;20326;-62
2022/07/29 13:56:53;;;;;;;7.07;4.78;;;;;;;;;;6261280;28;20073;-62
2022/07/29 13:59:55;;;;;;;11.23;5.07;;;;;;;;;;6258874;28;20056;-62
2022/07/29 14:02:56;;;;;;;10.43;5.35;;;;;;;;;;6260271;28;20067;-59
2022/07/29 14:05:59;;;;;;;6.90;5.28;;;;;;;;;;6265894;28;20077;-62
2022/07/29 14:09:00;;;;;;;8.35;4.85;;;;;;;;;;6263834;28;20045;-62
2022/07/29 14:12:02;;;;;;;8.27;4.90;;;;;;;;;;6264837;28;20093;-60
2022/07/29 14:15:03;;;;;;;6.47;4.60;;;;;;;;;;6257484;28;20057;-63
2022/07/29 14:18:04;;;;;;;9.88;5.20;;;;;;;;;;6266403;28;20404;-60
2022/07/29 14:21:04;;;;;;;8.35;5.07;;;;;;;;;;6266411;28;20057;-61
2022/07/29 14:24:06;;;;;;;9.27;5.13;;;;;;;;;;6261833;28;20831;-60
2022/07/29 14:27:07;;;;;;;;;;;;;;;;;;6269428;28;20056;-61
2022/07/29 14:30:08;;;;;;;7.93;4.80;;;;;;;;;;6294759;28;19928;-60
2022/07/29 14:33:10;;;;;;;8.65;5.25;;;;;;;;;;6261109;28;20060;-60
2022/07/29 14:36:10;;;;;;;9.98;5.38;;;;;;;;;;6264194;28;20462;-60
2022/07/29 14:39:11;;;;;;;9.90;5.00;;;;;;;;;;6264175;28;20548;-60
2022/07/29 14:42:12;;;;;;;8.18;4.90;;;;;;;;;;6261873;28;20049;-60
2022/07/29 14:45:13;;;;;;;8.45;5.22;;;;;;;;;;6263538;28;20160;-60
2022/07/29 14:48:14;;;;;;;7.50;5.13;;;;;;;;;;6264925;28;20053;-60
2022/07/29 14:51:15;;;;;;;7.65;5.18;;;;;;;;;;6261724;28;20053;-60
2022/07/29 14:54:15;;;;;;;8.80;5.00;;;;;;;;;;6256663;28;20087;-60
2022/07/29 14:57:16;;;;;;;7.72;5.95;;;;;;;;;;6264078;28;20055;-60
2022/07/29 15:00:17;;;;;;;8.95;4.97;;;;;;;;;;6264672;28;20049;-59
2022/07/29 15:03:18;;;;;;;;;;;;;;;;;;6257687;28;20049;-61
2022/07/29 15:06:18;;;;;;;8.67;5.03;;;;;;;;;;6265335;28;19979;-61
2022/07/29 15:09:19;;;;;;;8.48;5.10;;;;;;;;;;6265476;28;20064;-62
2022/07/29 15:12:20;;;;;;;9.33;5.17;;;;;;;;;;6264646;28;20686;-62
2022/07/29 15:15:20;;;;;;;8.65;4.97;;;;;;;;;;6263543;28;20056;-62
2022/07/29 15:18:21;;;;;;;9.13;4.70;;;;;;;;;;6264489;28;20052;-62
2022/07/29 15:21:22;;;;;;;8.48;5.30;;;;;;;;;;6267033;28;20056;-59
2022/07/29 15:24:22;;;;;;;7.73;5.03;;;;;;;;;;6264128;28;20502;-60
2022/07/29 15:27:23;;;;;;;9.65;5.38;;;;;;;;;;6264588;28;20506;-59
2022/07/29 15:30:25;;;;;;;9.18;5.35;;;;;;;;;;6246594;28;20105;-60
2022/07/29 15:33:27;;;;;;;12.30;5.50;;;;;;;;;;6262609;28;20076;-60
2022/07/29 15:36:28;;;;;;;14.32;6.43;;;;;;;;;;6265061;28;20063;-61
2022/07/29 15:39:29;;;;;;;17.30;8.20;;;;;;;;;;6260761;28;20060;-60
2022/07/29 15:42:29;;;;;;;25.15;16.70;;;;;;;;;;6258568;28;20110;-60
2022/07/29 15:45:36;;;;;;;15.60;8.00;;;;;;;;;;6260414;28;20456;-61
2022/07/29 15:48:39;;;;;;;10.95;7.22;;;;;;;;;;6261941;28;20064;-61
2022/07/29 15:51:40;;;;;;;7.85;4.95;;;;;;;;;;6262816;28;20071;-60
2022/07/29 15:54:40;;;;;;;9.63;5.30;;;;;;;;;;6261116;28;20052;-61
2022/07/29 15:57:41;;;;;;;8.40;5.43;;;;;;;;;;6261769;28;20059;-60
2022/07/29 16:00:42;;;;;;;11.20;5.63;;;;;;;;;;6261874;28;20684;-61
2022/07/29 16:03:42;;;;;;;11.83;6.50;;;;;;;;;;6259740;28;20331;-60
2022/07/29 16:06:45;;;;;;;9.47;5.60;;;;;;;;;;6263352;28;20053;-60
2022/07/29 16:09:45;;;;;;;10.45;5.90;;;;;;;;;;6260288;28;20056;-60
2022/07/29 16:12:46;;;;;;;12.17;6.00;;;;;;;;;;6258246;28;20103;-60
2022/07/29 16:15:47;;;;;;;10.80;6.00;;;;;;;;;;6257411;28;20528;-60
2022/07/29 16:18:47;;;;;;;9.60;5.55;;;;;;;;;;6262043;28;20048;-61
2022/07/29 16:21:48;;;;;;;5.83;4.90;;;;;;;;;;6262315;28;20057;-59
2022/07/29 16:24:49;;;;;;;13.77;7.17;;;;;;;;;;6259193;28;20309;-60
2022/07/29 16:27:50;;;;;;;12.25;6.50;;;;;;;;;;6263816;28;20048;-60
2022/07/29 16:30:50;;;;;;;8.83;6.67;;;;;;;;;;6254197;28;20079;-61
2022/07/29 16:33:52;;;;;;;11.20;6.97;;;;;;;;;;6255050;28;20056;-60
2022/07/29 16:36:52;;;;;;;10.25;7.07;;;;;;;;;;6264655;28;20617;-61
2022/07/29 16:39:53;;;;;;;10.27;7.03;;;;;;;;;;6260165;28;20053;-60
2022/07/29 16:42:54;;;;;;;12.67;7.00;;;;;;;;;;6258014;28;20081;-59
2022/07/29 16:45:54;;;;;;;10.50;7.27;;;;;;;;;;6261670;28;20163;-60
2022/07/29 16:48:55;;;;;;;12.23;7.38;;;;;;;;;;6258281;28;20496;-60
2022/07/29 16:51:56;;;;;;;12.75;7.30;;;;;;;;;;6256642;28;20057;-60
2022/07/29 16:54:57;;;;;;;9.47;7.07;;;;;;;;;;6254861;28;20467;-60
2022/07/29 16:57:57;;;;;;;12.90;8.10;;;;;;;;;;6264205;28;20055;-61
2022/07/29 17:00:58;;;;;;;11.33;7.40;;;;;;;;;;6264067;28;20052;-61
2022/07/29 17:04:05;;;;;;;11.17;7.80;;;;;;;;;;6259699;28;20735;-61
2022/07/29 17:07:05;;;;;;;13.02;8.80;;;;;;;;;;6267083;28;20102;-61
2022/07/29 17:10:07;;;;;;;;;;;;;;;;;;6267333;28;20059;-61
2022/07/29 17:13:08;;;;;;;14.20;9.77;;;;;;;;;;6261246;28;19951;-61
2022/07/29 17:16:09;;;;;;;11.23;8.13;;;;;;;;;;6261289;28;20036;-60
2022/07/29 17:19:09;;;;;;;18.13;13.33;;;;;;;;;;6245697;28;20056;-60
2022/07/29 17:22:12;;;;;;;24.27;21.38;;;;;;;;;;6259120;28;20297;-61
2022/07/29 17:25:13;;;;;;;11.65;8.77;;;;;;;;;;6258421;28;20045;-60
2022/07/29 17:28:15;;;;;;;15.15;10.27;;;;;;;;;;6261218;28;20052;-60
2022/07/29 17:31:16;;;;;;;12.00;8.55;;;;;;;;;;6264684;28;20126;-60
2022/07/29 17:34:20;;;;;;;13.18;11.48;;;;;;;;;;6264580;28;20053;-60
2022/07/29 17:37:21;;;;;;;;;;;;;;;;;;6266969;28;20080;-60
2022/07/29 17:40:22;;;;;;;12.45;9.90;;;;;;;;;;6263270;28;19928;-59
2022/07/29 17:43:23;;;;;;;11.53;8.40;;;;;;;;;;6265630;28;20052;-58
2022/07/29 17:46:28;;;;;;;14.73;10.80;;;;;;;;;;6268177;28;20581;-61
2022/07/29 17:49:32;;;;;;;9.13;7.47;;;;;;;;;;6265692;28;20054;-61
2022/07/29 17:52:37;;;;;;;11.55;7.95;;;;;;;;;;6265158;28;20061;-61
2022/07/29 17:55:38;;;;;;;9.25;7.43;;;;;;;;;;6257759;28;20053;-60
2022/07/29 17:58:39;;;;;;;13.53;8.93;;;;;;;;;;6262917;28;20515;-61
2022/07/29 18:01:40;;;;;;;10.63;8.60;;;;;;;;;;6261861;28;20115;-58
2022/07/29 18:04:40;;;;;;;10.50;8.10;;;;;;;;;;6266163;28;20049;-60
2022/07/29 18:07:41;;;;;;;15.60;12.27;;;;;;;;;;6267254;28;20041;-60
2022/07/29 18:10:43;;;;;;;17.67;15.03;;;;;;;;;;6263424;28;20808;-58
2022/07/29 18:13:43;;;;;;;22.05;13.65;;;;;;;;;;6264734;28;20045;-57
2022/07/29 18:16:44;;;;;;;18.00;12.90;;;;;;;;;;6262331;28;20064;-59
2022/07/29 18:19:44;;;;;;;17.77;12.83;;;;;;;;;;6261811;28;20064;-60
2022/07/29 18:22:45;;;;;;;14.60;11.50;;;;;;;;;;6263416;28;20055;-61
2022/07/29 18:25:45;;;;;;;14.53;10.00;;;;;;;;;;6258448;28;20053;-61
2022/07/29 18:28:46;;;;;;;15.10;11.93;;;;;;;;;;6258382;28;20174;-61
2022/07/29 18:31:46;;;;;;;15.13;12.30;;;;;;;;;;6265329;28;20060;-60
2022/07/29 18:34:48;;;;;;;13.50;10.83;;;;;;;;;;6264433;28;20147;-59
2022/07/29 18:37:48;;;;;;;12.57;10.10;;;;;;;;;;6267160;28;20049;-59
2022/07/29 18:40:49;;;;;;;21.23;18.37;;;;;;;;;;6256910;28;20563;-61
2022/07/29 18:43:50;;;;;;;13.17;10.07;;;;;;;;;;6264719;28;21502;-60
2022/07/29 18:46:51;;;;;;;12.95;10.07;;;;;;;;;;6260896;28;20060;-60
2022/07/29 18:49:51;;;;;;;14.73;10.80;;;;;;;;;;6264419;28;20469;-59
2022/07/29 18:52:52;;;;;;;15.90;11.87;;;;;;;;;;6258630;28;21406;-60
2022/07/29 18:55:52;;;;;;;17.57;12.53;;;;;;;;;;6264934;28;20060;-60
2022/07/29 18:58:53;;;;;;;19.97;14.23;;;;;;;;;;6269045;28;20064;-60
2022/07/29 19:01:54;;;;;;;15.70;11.80;;;;;;;;;;6263221;28;20049;-59
2022/07/29 19:04:55;;;;;;;17.47;12.17;;;;;;;;;;6261336;28;20618;-60
2022/07/29 19:07:56;;;;;;;15.80;11.88;;;;;;;;;;6261147;28;20060;-59
2022/07/29 19:10:56;;;;;;;18.30;11.60;;;;;;;;;;6261302;28;20052;-60
2022/07/29 19:13:57;;;;;;;16.30;12.20;;;;;;;;;;6264404;28;20560;-60
2022/07/29 19:16:57;;;;;;;16.17;12.43;;;;;;;;;;6262592;28;20053;-60
2022/07/29 19:19:58;;;;;;;18.27;11.83;;;;;;;;;;6264890;28;20566;-59
2022/07/29 19:22:58;;;;;;;26.10;13.10;;;;;;;;;;6256870;28;20088;-59
2022/07/29 19:25:59;;;;;;;22.73;12.27;;;;;;;;;;6264250;28;21008;-60
2022/07/29 19:29:00;;;;;;;20.67;13.07;;;;;;;;;;6262471;28;20086;-59
2022/07/29 19:32:00;;;;;;;22.67;17.07;;;;;;;;;;6258395;28;20041;-59
2022/07/29 19:38:21;;;;;;;18.95;13.38;;;;;;;;;;6261739;28;20049;-58
2022/07/29 19:41:22;;;;;;;30.85;20.58;;;;;;;;;;6262515;28;20048;-59
2022/07/29 19:44:22;;;;;;;22.00;14.73;;;;;;;;;;6261361;28;20071;-59
2022/07/29 19:47:23;;;;;;;28.50;15.97;;;;;;;;;;6266339;28;20183;-59
2022/07/29 19:50:25;;;;;;;31.47;19.50;;;;;;;;;;6254966;28;20467;-59
2022/07/29 19:53:25;;;;;;;;;;;;;;;;;;6265719;28;20049;-59
2022/07/29 19:56:28;;;;;;;22.85;14.43;;;;;;;;;;6264986;28;19936;-59
2022/07/29 19:59:29;;;;;;;20.88;13.90;;;;;;;;;;6258583;28;20113;-58
2022/07/29 20:02:30;;;;;;;22.93;14.57;;;;;;;;;;6262476;28;20451;-59
2022/07/29 20:05:30;;;;;;;21.10;12.20;;;;;;;;;;6264149;28;20446;-59
2022/07/29 20:08:31;;;;;;;19.37;13.50;;;;;;;;;;6262267;28;20496;-59
2022/07/29 20:11:35;;;;;;;19.08;13.48;;;;;;;;;;6263169;28;20522;-59
2022/07/29 20:14:36;;;;;;;21.95;14.48;;;;;;;;;;6253040;28;20041;-59
2022/07/29 20:17:36;;;;;;;20.47;14.63;;;;;;;;;;6255304;28;20060;-59
2022/07/29 20:20:37;;;;;;;20.30;12.97;;;;;;;;;;6254502;28;20044;-59
2022/07/29 20:23:37;;;;;;;23.90;13.60;;;;;;;;;;6253514;28;20143;-59
2022/07/29 20:26:38;;;;;;;20.87;13.07;;;;;;;;;;6256224;28;20067;-59
2022/07/29 20:29:39;;;;;;;19.43;13.27;;;;;;;;;;6248602;28;20060;-60
2022/07/29 20:32:40;;;;;;;21.45;14.02;;;;;;;;;;6252993;28;20040;-60
2022/07/29 20:35:42;;;;;;;20.80;13.37;;;;;;;;;;6248619;28;20583;-59
2022/07/29 20:38:42;;;;;;;23.15;13.60;;;;;;;;;;6251647;28;20050;-59
2022/07/29 20:41:43;;;;;;;21.40;13.50;;;;;;;;;;6250421;28;20142;-59
2022/07/29 20:44:44;;;;;;;17.90;12.60;;;;;;;;;;6250877;28;20053;-59
2022/07/29 20:47:45;;;;;;;17.30;12.40;;;;;;;;;;6251178;28;20068;-60
2022/07/29 20:50:47;;;;;;;19.13;12.57;;;;;;;;;;6246928;28;20480;-60
2022/07/29 20:53:48;;;;;;;20.17;12.52;;;;;;;;;;6251670;28;20048;-58
2022/07/29 20:56:48;;;;;;;18.20;11.57;;;;;;;;;;6250301;28;20462;-58
2022/07/29 20:59:49;;;;;;;20.67;15.77;;;;;;;;;;6250034;28;20052;-59
2022/07/29 21:02:50;;;;;;;21.00;13.07;;;;;;;;;;6252043;28;20049;-60
2022/07/29 21:05:51;;;;;;;20.73;13.68;;;;;;;;;;6251975;28;20056;-61
2022/07/29 21:08:54;;;;;;;18.10;10.67;;;;;;;;;;6250344;28;20708;-61
2022/07/29 21:11:55;;;;;;;47.10;37.28;;;;;;;;;;6250334;28;20045;-61
2022/07/29 21:14:56;;;;;;;18.40;13.47;;;;;;;;;;6249262;28;20506;-60
2022/07/29 21:18:01;;;;;;;15.68;9.23;;;;;;;;;;6253536;28;20049;-61
2022/07/29 21:21:04;;;;;;;12.93;8.80;;;;;;;;;;6250998;28;20041;-60
2022/07/29 21:24:06;;;;;;;12.07;7.80;;;;;;;;;;6248989;28;20049;-60
2022/07/29 21:30:26;;;;;;;11.45;8.57;;;;;;;;;;6252520;28;20057;-60
2022/07/29 21:33:28;;;;;;;14.87;11.07;;;;;;;;;;6249098;28;20592;-60
2022/07/29 21:36:29;;;;;;;13.13;9.25;;;;;;;;;;6256702;28;20058;-60
2022/07/29 21:39:29;;;;;;;17.53;10.93;;;;;;;;;;6257809;28;20049;-59
2022/07/29 21:42:30;;;;;;;16.40;9.37;;;;;;;;;;6250172;28;20243;-61
2022/07/29 21:45:31;;;;;;;13.47;9.87;;;;;;;;;;6248982;28;20057;-61
2022/07/29 21:48:31;;;;;;;15.53;10.43;;;;;;;;;;6251460;28;20083;-61
2022/07/29 21:51:32;;;;;;;12.13;9.03;;;;;;;;;;6250563;28;20178;-60
2022/07/29 21:54:32;;;;;;;15.43;10.87;;;;;;;;;;6260393;28;20557;-60
2022/07/29 21:57:33;;;;;;;15.10;8.90;;;;;;;;;;6260689;28;20048;-60
2022/07/29 22:00:34;;;;;;;12.60;9.50;;;;;;;;;;6254396;28;20079;-60
2022/07/29 22:03:34;;;;;;;12.57;8.33;;;;;;;;;;6252931;28;20052;-60
2022/07/29 22:06:35;;;;;;;11.60;8.77;;;;;;;;;;6255298;28;20674;-60
2022/07/29 22:09:35;;;;;;;10.60;8.60;;;;;;;;;;6256848;28;20040;-60
2022/07/29 22:12:36;;;;;;;22.40;17.77;;;;;;;;;;6250873;28;20068;-60
2022/07/29 22:15:36;;;;;;;11.37;8.20;;;;;;;;;;6251224;28;20110;-60
2022/07/29 22:18:37;;;;;;;13.57;8.03;;;;;;;;;;6256085;28;20118;-60
2022/07/29 22:21:38;;;;;;;12.23;7.43;;;;;;;;;;6251441;28;20040;-60
2022/07/29 22:24:39;;;;;;;9.98;7.47;;;;;;;;;;6249434;28;20043;-60
2022/07/29 22:27:39;;;;;;;10.47;7.77;;;;;;;;;;6255839;28;20045;-60
2022/07/29 22:30:40;;;;;;;11.73;7.17;;;;;;;;;;6253928;28;20084;-59
2022/07/29 22:33:41;;;;;;;10.73;7.17;;;;;;;;;;6250828;28;20044;-58
2022/07/29 22:36:42;;;;;;;25.37;22.03;;;;;;;;;;6255633;28;20053;-60
2022/07/29 22:39:42;;;;;;;15.88;14.18;;;;;;;;;;6253364;28;20049;-60
2022/07/29 22:42:43;;;;;;;9.67;7.23;;;;;;;;;;6253213;28;20075;-60
2022/07/29 22:45:44;;;;;;;14.90;10.43;;;;;;;;;;6252081;28;20602;-60
2022/07/29 22:48:44;;;;;;;8.70;6.57;;;;;;;;;;6254425;28;20140;-61
2022/07/29 22:51:45;;;;;;;8.83;6.47;;;;;;;;;;6255383;28;20049;-61
2022/07/29 22:54:46;;;;;;;10.03;8.13;;;;;;;;;;6251734;28;20068;-60
2022/07/29 22:57:46;;;;;;;9.17;7.00;;;;;;;;;;6257071;28;20049;-60
2022/07/29 23:00:47;;;;;;;9.40;6.00;;;;;;;;;;6259653;28;20060;-60
2022/07/29 23:03:48;;;;;;;8.77;5.97;;;;;;;;;;6258234;28;20045;-60
2022/07/29 23:06:49;;;;;;;7.03;5.73;;;;;;;;;;6259309;28;20064;-60
2022/07/29 23:09:49;;;;;;;8.80;6.05;;;;;;;;;;6258416;28;20052;-61
2022/07/29 23:12:50;;;;;;;7.50;6.03;;;;;;;;;;6256222;28;20051;-60
2022/07/29 23:15:50;;;;;;;10.30;6.10;;;;;;;;;;6252755;28;20060;-59
2022/07/29 23:18:51;;;;;;;9.40;5.60;;;;;;;;;;6254457;28;20088;-59
2022/07/29 23:21:52;;;;;;;14.70;6.97;;;;;;;;;;6255190;28;20057;-60
2022/07/29 23:24:53;;;;;;;7.43;5.27;;;;;;;;;;6248879;28;20045;-59
2022/07/29 23:27:53;;;;;;;7.87;5.60;;;;;;;;;;6251496;28;20056;-59
2022/07/29 23:30:54;;;;;;;7.50;5.70;;;;;;;;;;6252043;28;20049;-61
2022/07/29 23:33:54;;;;;;;9.60;5.70;;;;;;;;;;6250926;28;20483;-60
2022/07/29 23:36:55;;;;;;;10.67;6.27;;;;;;;;;;6251827;28;20055;-60
2022/07/29 23:39:55;;;;;;;8.30;5.73;;;;;;;;;;6253606;28;20095;-59
2022/07/29 23:42:56;;;;;;;8.17;4.87;;;;;;;;;;6247344;28;20057;-59
2022/07/29 23:45:57;;;;;;;9.33;5.53;;;;;;;;;;6252497;28;20053;-59
2022/07/29 23:48:57;;;;;;;8.30;5.30;;;;;;;;;;6254460;28;20051;-59
2022/07/29 23:51:58;;;;;;;9.07;6.07;;;;;;;;;;6254164;28;20044;-59
2022/07/29 23:54:59;;;;;;;8.23;6.20;;;;;;;;;;6251761;28;20477;-60
2022/07/29 23:57:59;;;;;;;10.60;6.60;;;;;;;;;;6252548;28;20037;-60
